createdAt,value
2022-12-23T00:01:34.629Z,5.13
2022-12-23T00:04:03.742Z,3.92
2022-12-23T00:06:30.516Z,2.65
2022-12-23T00:09:01.233Z,2.55
2022-12-23T00:11:29.012Z,3.33
2022-12-23T00:14:20.878Z,4.70
2022-12-23T00:16:48.393Z,2.42
2022-12-23T00:19:15.688Z,3.35
2022-12-23T00:21:42.404Z,3.42
2022-12-23T00:24:09.171Z,2.15
2022-12-23T00:26:35.933Z,3.20
2022-12-23T00:29:02.653Z,3.50
2022-12-23T00:31:31.094Z,3.33
2022-12-23T00:33:58.853Z,1.92
2022-12-23T00:36:28.993Z,3.33
2022-12-23T00:39:16.484Z,6.95
2022-12-23T00:42:02.436Z,6.53
2022-12-23T00:44:29.260Z,3.50
2022-12-23T00:46:56.121Z,2.17
2022-12-23T00:49:41.927Z,4.13
2022-12-23T00:52:12.831Z,1.40
2022-12-23T00:54:39.787Z,2.08
2022-12-23T00:57:06.560Z,2.35
2022-12-23T00:59:33.742Z,2.03
2022-12-23T01:02:19.105Z,1.48
2022-12-23T01:05:04.424Z,2.67
2022-12-23T01:07:31.207Z,1.83
2022-12-23T01:09:59.586Z,1.70
2022-12-23T01:12:26.331Z,2.65
2022-12-23T01:14:53.075Z,2.30
2022-12-23T01:17:19.890Z,2.05
2022-12-23T01:19:47.118Z,1.48
2022-12-23T01:22:13.789Z,5.57
2022-12-23T01:24:40.521Z,0.77
2022-12-23T01:27:08.311Z,1.55
2022-12-23T01:29:35.079Z,0.95
2022-12-23T01:32:01.844Z,0.70
2022-12-23T01:34:36.046Z,1.45
2022-12-23T01:37:03.382Z,1.30
2022-12-23T01:39:30.388Z,1.25
2022-12-23T01:42:15.713Z,0.47
2022-12-23T01:44:50.266Z,0.60
2022-12-23T01:47:28.966Z,0.93
2022-12-23T01:50:19.283Z,2.20
2022-12-23T01:52:51.862Z,0.77
2022-12-23T01:55:24.575Z,1.63
2022-12-23T01:57:55.684Z,0.82
2022-12-23T02:00:41.203Z,0.50
2022-12-23T02:03:26.833Z,1.40
2022-12-23T02:05:54.149Z,0.70
2022-12-23T02:08:39.460Z,2.15
2022-12-23T02:11:35.054Z,2.47
2022-12-23T02:14:23.713Z,0.57
2022-12-23T02:16:58.395Z,0.95
2022-12-23T02:20:07.730Z,1.02
2022-12-23T02:23:00.522Z,0.50
2022-12-23T02:25:52.259Z,1.35
2022-12-23T02:29:04.858Z,1.45
2022-12-23T02:31:50.476Z,1.20
2022-12-23T02:34:24.749Z,0.40
2022-12-23T02:36:59.389Z,0.65
2022-12-23T02:39:37.925Z,0.30
2022-12-23T02:42:11.593Z,0.52
2022-12-23T02:45:03.469Z,1.88
2022-12-23T02:47:37.892Z,2.58
2022-12-23T02:50:11.117Z,0.60
2022-12-23T02:52:41.239Z,2.20
2022-12-23T02:55:16.784Z,0.52
2022-12-23T02:57:48.799Z,0.75
2022-12-23T03:00:16.968Z,0.77
2022-12-23T03:02:44.184Z,1.17
2022-12-23T03:05:39.141Z,0.95
2022-12-23T03:08:12.267Z,0.40
2022-12-23T03:11:14.433Z,1.23
2022-12-23T03:14:10.047Z,0.50
2022-12-23T03:16:55.502Z,0.60
2022-12-23T03:19:39.761Z,1.52
2022-12-23T03:22:25.585Z,2.42
2022-12-23T03:25:20.446Z,0.70
2022-12-23T03:27:49.876Z,1.70
2022-12-23T03:30:19.832Z,2.35
2022-12-23T03:32:52.454Z,3.13
2022-12-23T03:35:23.896Z,2.20
2022-12-23T03:37:54.421Z,1.52
2022-12-23T03:40:26.273Z,2.50
2022-12-23T03:43:08.594Z,1.83
2022-12-23T03:45:41.961Z,5.20
2022-12-23T03:48:31.539Z,2.30
2022-12-23T03:51:04.284Z,5.13
2022-12-23T03:53:35.185Z,4.35
2022-12-23T03:56:10.550Z,3.65
2022-12-23T03:59:01.688Z,3.25
2022-12-23T04:01:42.955Z,4.05
2022-12-23T04:04:15.778Z,3.97
2022-12-23T04:06:55.904Z,4.22
2022-12-23T04:09:24.848Z,4.03
2022-12-23T04:11:52.398Z,3.17
2022-12-23T04:14:20.601Z,4.70
2022-12-23T04:16:49.275Z,3.10
2022-12-23T04:19:16.324Z,2.40
2022-12-23T04:21:44.254Z,2.83
2022-12-23T04:24:11.212Z,5.22
2022-12-23T04:26:37.938Z,3.95
2022-12-23T04:29:05.327Z,4.93
2022-12-23T04:31:32.173Z,5.30
2022-12-23T04:33:59.619Z,3.83
2022-12-23T04:36:26.363Z,2.75
2022-12-23T04:38:54.095Z,2.25
2022-12-23T04:41:20.851Z,2.20
2022-12-23T04:43:52.941Z,2.25
2022-12-23T04:46:21.277Z,3.20
2022-12-23T04:48:48.098Z,3.38
2022-12-23T04:51:14.803Z,2.45
2022-12-23T04:53:41.773Z,1.73
2022-12-23T04:56:09.760Z,2.40
2022-12-23T04:58:36.570Z,2.42
2022-12-23T05:01:09.007Z,1.45
2022-12-23T05:03:36.822Z,2.28
2022-12-23T05:06:04.413Z,4.07
2022-12-23T05:08:32.425Z,2.60
2022-12-23T05:10:59.260Z,1.30
2022-12-23T05:13:26.127Z,2.33
2022-12-23T05:15:54.274Z,2.38
2022-12-23T05:18:22.253Z,2.17
2022-12-23T05:20:49.498Z,3.55
2022-12-23T05:23:16.304Z,3.17
2022-12-23T05:25:43.063Z,2.25
2022-12-23T05:28:10.088Z,2.35
2022-12-23T05:30:37.370Z,2.28
2022-12-23T05:33:04.148Z,4.00
2022-12-23T05:35:30.932Z,3.28
2022-12-23T05:37:58.038Z,4.68
2022-12-23T05:40:27.563Z,2.35
2022-12-23T05:42:59.064Z,3.25
2022-12-23T05:45:25.935Z,2.05
2022-12-23T05:47:52.750Z,1.17
2022-12-23T05:50:19.484Z,3.85
2022-12-23T05:52:46.199Z,3.22
2022-12-23T05:55:12.925Z,1.65
2022-12-23T05:57:40.021Z,2.33
2022-12-23T06:00:08.527Z,4.70
2022-12-23T06:02:35.469Z,2.05
2022-12-23T06:05:02.460Z,2.80
2022-12-23T06:07:30.280Z,1.95
2022-12-23T06:09:56.980Z,2.08
2022-12-23T06:12:23.756Z,2.22
2022-12-23T06:14:50.485Z,3.08
2022-12-23T06:17:17.206Z,3.97
2022-12-23T06:19:43.937Z,2.33
2022-12-23T06:22:10.704Z,1.38
2022-12-23T06:24:37.393Z,1.90
2022-12-23T06:27:05.897Z,1.05
2022-12-23T06:29:32.691Z,1.65
2022-12-23T06:31:59.474Z,3.00
2022-12-23T06:34:27.729Z,1.42
2022-12-23T06:36:55.497Z,2.17
2022-12-23T06:39:22.589Z,1.48
2022-12-23T06:41:49.548Z,2.85
2022-12-23T06:44:17.650Z,2.65
2022-12-23T06:46:44.429Z,1.73
2022-12-23T06:49:13.777Z,0.98
2022-12-23T06:51:40.790Z,2.90
2022-12-23T06:54:09.854Z,4.10
2022-12-23T06:56:37.740Z,2.45
2022-12-23T06:59:04.647Z,2.13
2022-12-23T07:01:31.757Z,2.00
2022-12-23T07:03:58.616Z,1.10
2022-12-23T07:06:25.295Z,2.92
2022-12-23T07:08:52.150Z,4.32
2022-12-23T07:11:18.839Z,0.85
2022-12-23T07:13:47.291Z,1.00
2022-12-23T07:16:15.522Z,1.73
2022-12-23T07:18:42.384Z,1.77
2022-12-23T07:21:21.176Z,2.33
2022-12-23T07:23:51.621Z,3.08
2022-12-23T07:26:18.423Z,2.80
2022-12-23T07:28:48.030Z,1.70
2022-12-23T07:31:16.627Z,2.08
2022-12-23T07:33:43.550Z,2.15
2022-12-23T07:36:10.660Z,2.65
2022-12-23T07:38:37.429Z,2.67
2022-12-23T07:41:04.251Z,3.65
2022-12-23T07:43:32.441Z,1.60
2022-12-23T07:46:00.750Z,3.10
2022-12-23T07:48:27.974Z,2.60
2022-12-23T07:51:03.831Z,2.22
2022-12-23T07:53:30.945Z,1.65
2022-12-23T07:55:58.287Z,1.90
2022-12-23T07:58:25.355Z,2.38
2022-12-23T08:01:00.185Z,4.03
2022-12-23T08:03:27.024Z,3.75
2022-12-23T08:06:13.016Z,4.88
2022-12-23T08:08:41.862Z,2.05
2022-12-23T08:11:10.695Z,2.65
2022-12-23T08:13:39.712Z,3.97
2022-12-23T08:16:07.908Z,5.85
2022-12-23T08:18:36.955Z,6.93
2022-12-23T08:21:06.167Z,4.68
2022-12-23T08:23:33.691Z,5.22
2022-12-23T08:26:09.931Z,5.63
2022-12-23T08:28:38.269Z,6.32
2022-12-23T08:31:13.690Z,8.90
2022-12-23T08:33:42.452Z,11.40
2022-12-23T08:36:15.072Z,2.05
2022-12-23T08:38:46.095Z,2.45
2022-12-23T08:41:20.963Z,3.20
2022-12-23T08:43:47.801Z,1.02
2022-12-23T08:46:14.618Z,2.72
2022-12-23T08:48:48.669Z,1.75
2022-12-23T08:51:17.261Z,1.23
2022-12-23T08:53:45.596Z,2.55
2022-12-23T08:56:15.506Z,3.03
2022-12-23T08:58:46.301Z,2.10
2022-12-23T09:01:16.000Z,2.53
2022-12-23T09:03:43.863Z,5.10
2022-12-23T09:06:26.524Z,4.63
2022-12-23T09:08:56.144Z,2.05
2022-12-23T09:11:25.295Z,1.77
2022-12-23T09:13:52.283Z,2.15
2022-12-23T09:16:21.498Z,1.40
2022-12-23T09:18:48.275Z,2.78
2022-12-23T09:21:17.984Z,4.70
2022-12-23T09:23:45.135Z,1.67
2022-12-23T09:26:18.929Z,2.25
2022-12-23T09:28:45.601Z,1.85
2022-12-23T09:31:13.644Z,1.42
2022-12-23T09:33:40.349Z,3.10
2022-12-23T09:36:07.539Z,1.73
2022-12-23T09:38:34.858Z,0.70
2022-12-23T09:41:26.173Z,0.95
2022-12-23T09:44:14.590Z,1.30
2022-12-23T09:46:48.992Z,2.78
2022-12-23T09:49:18.476Z,2.17
2022-12-23T09:51:46.979Z,1.85
2022-12-23T09:54:19.578Z,4.85
2022-12-23T09:57:04.560Z,2.90
2022-12-23T09:59:48.455Z,3.25
2022-12-23T10:02:38.770Z,5.90
2022-12-23T10:05:11.991Z,4.15
2022-12-23T10:08:13.550Z,3.03
2022-12-23T10:10:46.743Z,1.00
2022-12-23T10:20:53.506Z,2.65
2022-12-23T10:23:29.220Z,5.45
2022-12-23T10:25:56.060Z,4.63
2022-12-23T10:28:29.904Z,4.15
2022-12-23T10:34:17.680Z,6.03
2022-12-23T10:37:00.804Z,4.18
2022-12-23T10:39:50.111Z,5.68
2022-12-23T10:42:31.772Z,3.25
2022-12-23T10:45:01.927Z,1.73
2022-12-23T10:47:30.734Z,3.30
2022-12-23T10:50:16.929Z,2.17
2022-12-23T10:52:46.777Z,6.90
2022-12-23T10:55:28.528Z,1.92
2022-12-23T10:58:17.225Z,2.53
2022-12-23T11:00:53.654Z,2.50
2022-12-23T11:03:33.423Z,2.60
2022-12-23T11:06:01.508Z,3.67
2022-12-23T11:08:31.197Z,5.15
2022-12-23T11:11:00.538Z,5.60
2022-12-23T11:13:39.853Z,3.20
2022-12-23T11:16:18.134Z,3.55
2022-12-23T11:19:06.800Z,3.60
2022-12-23T11:21:34.714Z,4.00
2022-12-23T11:24:14.453Z,5.10
2022-12-23T11:26:42.018Z,2.10
2022-12-23T11:29:21.062Z,3.83
2022-12-23T11:31:47.984Z,4.28
2022-12-23T11:34:21.192Z,4.85
2022-12-23T11:37:01.893Z,6.10
2022-12-23T11:39:36.763Z,5.75
2022-12-23T11:42:15.654Z,4.63
2022-12-23T11:44:46.058Z,5.63
2022-12-23T11:47:29.546Z,5.38
2022-12-23T11:50:04.076Z,5.90
2022-12-23T11:52:33.569Z,9.07
2022-12-23T11:55:02.300Z,6.30
2022-12-23T11:57:49.147Z,4.80
2022-12-23T12:00:26.204Z,4.47
2022-12-23T12:02:56.006Z,3.92
2022-12-23T12:05:31.189Z,3.58
2022-12-23T12:08:05.921Z,4.53
2022-12-23T12:10:35.265Z,2.65
2022-12-23T12:13:04.909Z,3.22
2022-12-23T12:15:34.780Z,2.78
2022-12-23T12:18:04.458Z,3.13
2022-12-23T12:20:41.932Z,4.85
2022-12-23T12:23:48.212Z,5.50
2022-12-23T12:26:22.274Z,3.83
2022-12-23T12:31:31.393Z,4.45
2022-12-23T12:34:20.676Z,2.67
2022-12-23T12:37:26.079Z,4.20
2022-12-23T12:40:04.076Z,4.72
2022-12-23T12:42:41.348Z,3.15
2022-12-23T12:45:23.962Z,6.78
2022-12-23T12:48:17.802Z,7.72
2022-12-23T12:50:59.774Z,3.95
2022-12-23T12:53:28.448Z,4.20
2022-12-23T12:56:08.499Z,6.25
2022-12-23T12:58:38.784Z,4.82
2022-12-23T13:01:11.799Z,3.55
2022-12-23T13:03:53.761Z,5.22
2022-12-23T13:07:03.007Z,6.05
2022-12-23T13:09:35.260Z,3.80
2022-12-23T13:12:27.871Z,4.60
2022-12-23T13:15:26.625Z,4.35
2022-12-23T13:18:13.339Z,3.30
2022-12-23T13:20:52.319Z,5.68
2022-12-23T13:23:45.852Z,6.03
2022-12-23T13:26:38.264Z,5.22
2022-12-23T13:29:42.558Z,5.68
2022-12-23T13:32:51.884Z,8.20
2022-12-23T13:35:43.682Z,5.18
2022-12-23T13:38:34.540Z,5.20
2022-12-23T13:41:23.459Z,4.50
2022-12-23T13:44:02.802Z,4.18
2022-12-23T13:47:06.371Z,4.32
2022-12-23T13:49:54.581Z,4.07
2022-12-23T13:52:43.967Z,4.47
2022-12-23T13:55:47.303Z,4.63
2022-12-23T13:58:22.023Z,4.10
2022-12-23T14:01:07.883Z,5.35
2022-12-23T14:03:36.956Z,5.47
2022-12-23T14:06:37.201Z,6.32
2022-12-23T14:09:05.273Z,3.75
2022-12-23T14:11:33.487Z,4.28
2022-12-23T14:14:07.608Z,4.30
2022-12-23T14:19:51.072Z,3.83
2022-12-23T14:22:32.689Z,2.22
2022-12-23T14:25:37.833Z,4.75
2022-12-23T14:28:30.243Z,3.50
2022-12-23T14:30:57.805Z,4.80
2022-12-23T14:33:31.155Z,3.15
2022-12-23T14:36:26.562Z,1.02
2022-12-23T14:39:11.837Z,2.63
2022-12-23T14:41:49.965Z,1.40
2022-12-23T14:44:37.249Z,1.42
2022-12-23T14:47:23.668Z,1.17
2022-12-23T14:49:51.765Z,0.98
2022-12-23T14:52:44.328Z,2.05
2022-12-23T14:55:32.656Z,4.38
2022-12-23T14:58:21.494Z,5.25
2022-12-23T15:01:11.860Z,0.60
2022-12-23T15:03:48.341Z,3.50
2022-12-23T15:06:26.913Z,5.18
2022-12-23T15:08:55.639Z,4.00
2022-12-23T15:11:28.797Z,3.38
2022-12-23T15:13:58.150Z,4.40
2022-12-23T15:16:45.357Z,1.27
2022-12-23T15:19:24.554Z,7.75
2022-12-23T15:22:15.322Z,4.53
2022-12-23T15:24:47.756Z,1.48
2022-12-23T15:27:29.683Z,1.90
2022-12-23T15:29:57.372Z,17.40
2022-12-23T15:32:26.734Z,15.73
2022-12-23T15:34:59.955Z,3.83
2022-12-23T15:37:29.634Z,2.20
2022-12-23T15:40:04.893Z,2.83
2022-12-23T15:42:38.555Z,4.70
2022-12-23T15:45:33.021Z,5.22
2022-12-23T15:48:00.502Z,4.55
2022-12-23T15:50:28.589Z,3.47
2022-12-23T15:53:00.435Z,7.22
2022-12-23T15:55:32.748Z,8.88
2022-12-23T15:58:00.858Z,4.75
2022-12-23T16:00:39.895Z,2.42
2022-12-23T16:03:21.755Z,4.68
2022-12-23T16:05:48.837Z,16.13
2022-12-23T16:08:23.047Z,8.38
2022-12-23T16:11:16.903Z,4.15
2022-12-23T16:14:27.822Z,2.50
2022-12-23T16:16:59.831Z,1.80
2022-12-23T16:20:14.337Z,2.55
2022-12-23T16:22:41.215Z,1.60
2022-12-23T16:25:31.717Z,3.33
2022-12-23T16:28:11.776Z,1.23
2022-12-23T16:30:41.957Z,0.65
2022-12-23T16:33:26.877Z,1.60
2022-12-23T16:35:55.617Z,1.08
2022-12-23T16:38:25.149Z,1.05
2022-12-23T16:40:54.575Z,1.13
2022-12-23T16:43:23.223Z,2.17
2022-12-23T16:45:54.106Z,2.15
2022-12-23T16:48:37.204Z,3.42
2022-12-23T16:51:07.734Z,2.88
2022-12-23T16:53:34.887Z,3.05
2022-12-23T16:56:02.613Z,8.32
2022-12-23T16:58:30.077Z,5.32
2022-12-23T17:00:56.897Z,4.18
2022-12-23T17:03:23.684Z,7.97
2022-12-23T17:05:50.401Z,6.55
2022-12-23T17:08:17.284Z,9.05
2022-12-23T17:10:44.895Z,7.40
2022-12-23T17:13:17.916Z,8.75
2022-12-23T17:15:46.019Z,6.35
2022-12-23T17:18:15.922Z,9.10
2022-12-23T17:20:45.078Z,7.93
2022-12-23T17:23:30.988Z,9.32
2022-12-23T17:25:58.717Z,9.38
2022-12-23T17:28:32.682Z,6.78
2022-12-23T17:30:59.932Z,14.13
2022-12-23T17:33:29.923Z,12.25
2022-12-23T17:35:58.916Z,7.30
2022-12-23T17:38:28.996Z,12.18
2022-12-23T17:40:58.579Z,9.75
2022-12-23T17:43:26.172Z,11.13
2022-12-23T17:45:53.157Z,14.70
2022-12-23T17:48:24.236Z,8.45
2022-12-23T17:50:54.804Z,12.65
2022-12-23T17:53:21.657Z,10.55
2022-12-23T17:55:48.389Z,10.00
2022-12-23T17:58:15.393Z,12.13
2022-12-23T18:00:42.395Z,11.60
2022-12-23T18:03:22.901Z,13.63
2022-12-23T18:05:59.164Z,11.07
2022-12-23T18:08:28.166Z,16.40
2022-12-23T18:10:57.168Z,10.32
2022-12-23T18:13:23.898Z,11.10
2022-12-23T18:15:51.036Z,10.77
2022-12-23T18:18:35.576Z,14.15
2022-12-23T18:21:15.119Z,14.63
2022-12-23T18:23:42.185Z,19.63
2022-12-23T18:26:15.288Z,17.70
2022-12-23T18:28:47.565Z,14.27
2022-12-23T18:31:20.536Z,11.70
2022-12-23T18:33:47.890Z,14.27
2022-12-23T18:36:30.745Z,11.07
2022-12-23T18:38:58.131Z,6.95
2022-12-23T18:41:26.521Z,14.23
2022-12-23T18:43:54.368Z,11.27
2022-12-23T18:46:21.461Z,12.57
2022-12-23T18:48:49.310Z,17.52
2022-12-23T18:51:19.271Z,11.55
2022-12-23T18:53:47.584Z,15.05
2022-12-23T18:56:16.295Z,13.77
2022-12-23T18:58:43.605Z,19.80
2022-12-23T19:01:14.688Z,11.68
2022-12-23T19:03:42.902Z,11.80
2022-12-23T19:06:12.770Z,10.13
2022-12-23T19:08:40.566Z,14.55
2022-12-23T19:11:19.219Z,14.88
2022-12-23T19:13:47.079Z,13.48
2022-12-23T19:16:19.403Z,33.05
2022-12-23T19:18:47.795Z,15.30
2022-12-23T19:21:16.812Z,12.10
2022-12-23T19:23:43.913Z,12.15
2022-12-23T19:26:13.609Z,12.52
2022-12-23T19:28:41.667Z,18.30
2022-12-23T19:31:14.380Z,13.18
2022-12-23T19:33:44.304Z,17.27
2022-12-23T19:36:13.439Z,12.52
2022-12-23T19:38:40.842Z,14.68
2022-12-23T19:41:15.499Z,11.27
2022-12-23T19:43:48.505Z,16.65
2022-12-23T19:46:16.913Z,16.48
2022-12-23T19:48:43.835Z,14.90
2022-12-23T19:51:13.304Z,17.13
2022-12-23T19:53:41.566Z,12.77
2022-12-23T19:56:13.772Z,15.40
2022-12-23T19:58:44.473Z,13.60
2022-12-23T20:01:20.040Z,14.35
2022-12-23T20:03:48.622Z,16.02
2022-12-23T20:06:20.932Z,18.35
2022-12-23T20:08:54.919Z,14.65
2022-12-23T20:11:26.292Z,13.70
2022-12-23T20:13:53.904Z,20.25
2022-12-23T20:16:23.488Z,16.25
2022-12-23T20:18:50.658Z,17.05
2022-12-23T20:21:17.881Z,16.25
2022-12-23T20:23:44.994Z,14.10
2022-12-23T20:26:15.903Z,14.68
2022-12-23T20:28:42.716Z,11.30
2022-12-23T20:31:16.476Z,11.88
2022-12-23T20:33:43.326Z,11.35
2022-12-23T20:36:12.498Z,14.27
2022-12-23T20:38:41.910Z,9.38
2022-12-23T20:41:10.463Z,14.32
2022-12-23T20:43:37.427Z,15.77
2022-12-23T20:46:05.873Z,9.30
2022-12-23T20:48:34.802Z,13.38
2022-12-23T20:51:06.176Z,13.80
2022-12-23T20:53:33.289Z,16.60
2022-12-23T20:56:01.175Z,17.38
2022-12-23T20:58:46.823Z,17.55
2022-12-23T21:01:14.607Z,11.88
2022-12-23T21:03:41.738Z,14.90
2022-12-23T21:06:09.557Z,11.13
2022-12-23T21:08:37.775Z,18.50
2022-12-23T21:11:05.890Z,10.95
2022-12-23T21:13:33.319Z,15.38
2022-12-23T21:16:01.961Z,14.45
2022-12-23T21:18:29.221Z,11.38
2022-12-23T21:21:03.875Z,15.10
2022-12-23T21:23:31.923Z,15.55
2022-12-23T21:26:10.554Z,14.40
2022-12-23T21:28:38.541Z,13.43
2022-12-23T21:31:06.124Z,11.23
2022-12-23T21:33:36.205Z,15.88
2022-12-23T21:36:03.397Z,9.40
2022-12-23T21:38:36.018Z,10.65
2022-12-23T21:41:05.807Z,14.77
2022-12-23T21:43:33.227Z,11.23
2022-12-23T21:46:02.299Z,13.52
2022-12-23T21:48:32.073Z,12.77
2022-12-23T21:51:07.741Z,13.93
2022-12-23T21:53:35.473Z,11.27
2022-12-23T21:56:04.247Z,16.08
2022-12-23T21:58:34.527Z,14.20
2022-12-23T22:01:09.939Z,10.52
2022-12-23T22:03:37.370Z,12.23
2022-12-23T22:06:15.383Z,13.75
2022-12-23T22:08:43.387Z,9.98
2022-12-23T22:11:12.782Z,10.68
2022-12-23T22:13:40.180Z,9.93
2022-12-23T22:16:11.753Z,14.23
2022-12-23T22:18:39.153Z,12.35
2022-12-23T22:21:10.603Z,14.70
2022-12-23T22:23:38.301Z,16.17
2022-12-23T22:26:06.826Z,17.67
2022-12-23T22:28:36.050Z,12.38
2022-12-23T22:31:18.436Z,14.85
2022-12-23T22:33:45.978Z,13.85
2022-12-23T22:36:14.593Z,15.35
2022-12-23T22:38:44.583Z,14.23
2022-12-23T22:41:11.394Z,15.07
2022-12-23T22:43:38.212Z,12.18
2022-12-23T22:46:05.750Z,10.93
2022-12-23T22:48:33.599Z,13.30
2022-12-23T22:51:14.403Z,10.77
2022-12-23T22:53:41.373Z,15.40
2022-12-23T22:56:10.198Z,10.20
2022-12-23T22:58:36.919Z,10.25
2022-12-23T23:01:04.268Z,9.60
2022-12-23T23:03:31.204Z,8.77
2022-12-23T23:06:04.646Z,17.23
2022-12-23T23:08:31.926Z,15.20
2022-12-23T23:11:01.749Z,12.63
2022-12-23T23:13:31.686Z,10.82
2022-12-23T23:15:59.115Z,15.90
2022-12-23T23:18:27.223Z,15.27
2022-12-23T23:20:54.472Z,13.63
2022-12-23T23:23:21.788Z,12.80
2022-12-23T23:25:48.585Z,11.65
2022-12-23T23:28:15.846Z,21.52
2022-12-23T23:30:44.462Z,19.48
2022-12-23T23:33:11.637Z,17.75
2022-12-23T23:35:38.532Z,13.30
2022-12-23T23:38:05.748Z,12.40
2022-12-23T23:40:32.585Z,16.88
2022-12-23T23:42:59.559Z,16.30
2022-12-23T23:45:27.641Z,15.07
2022-12-23T23:47:55.682Z,16.83
2022-12-23T23:50:22.547Z,14.60
2022-12-23T23:52:49.492Z,16.48
2022-12-23T23:55:16.629Z,11.68
2022-12-23T23:57:43.379Z,12.73
